sensor_id;sensor_type;location;lat;lon;timestamp;P1;durP1;ratioP1;P2;durP2;ratioP2
14209;SDS011;7188;56.070;12.698;2022-09-13T00:01:28;4.30;;;1.93;;
14209;SDS011;7188;56.070;12.698;2022-09-13T00:03:54;4.47;;;1.50;;
14209;SDS011;7188;56.070;12.698;2022-09-13T00:06:20;1.77;;;1.63;;
14209;SDS011;7188;56.070;12.698;2022-09-13T00:08:46;4.43;;;1.50;;
14209;SDS011;7188;56.070;12.698;2022-09-13T00:11:13;3.30;;;1.30;;
14209;SDS011;7188;56.070;12.698;2022-09-13T00:13:41;3.13;;;1.63;;
14209;SDS011;7188;56.070;12.698;2022-09-13T00:16:09;2.40;;;1.00;;
14209;SDS011;7188;56.070;12.698;2022-09-13T00:18:36;3.23;;;1.13;;
14209;SDS011;7188;56.070;12.698;2022-09-13T00:21:03;4.40;;;1.50;;
14209;SDS011;7188;56.070;12.698;2022-09-13T00:23:33;2.10;;;1.20;;
14209;SDS011;7188;56.070;12.698;2022-09-13T00:26:03;3.33;;;1.30;;
14209;SDS011;7188;56.070;12.698;2022-09-13T00:28:34;5.00;;;1.40;;
14209;SDS011;7188;56.070;12.698;2022-09-13T00:31:01;4.97;;;1.60;;
14209;SDS011;7188;56.070;12.698;2022-09-13T00:33:28;2.33;;;1.30;;
14209;SDS011;7188;56.070;12.698;2022-09-13T00:35:54;4.00;;;1.57;;
14209;SDS011;7188;56.070;12.698;2022-09-13T00:38:20;2.20;;;1.50;;
14209;SDS011;7188;56.070;12.698;2022-09-13T00:40:45;1.53;;;1.40;;
14209;SDS011;7188;56.070;12.698;2022-09-13T00:43:15;1.57;;;1.27;;
14209;SDS011;7188;56.070;12.698;2022-09-13T00:45:46;1.80;;;1.10;;
14209;SDS011;7188;56.070;12.698;2022-09-13T00:48:27;3.17;;;1.10;;
14209;SDS011;7188;56.070;12.698;2022-09-13T00:50:54;2.50;;;1.13;;
14209;SDS011;7188;56.070;12.698;2022-09-13T00:53:21;1.42;;;1.33;;
14209;SDS011;7188;56.070;12.698;2022-09-13T00:56:38;1.77;;;1.10;;
14209;SDS011;7188;56.070;12.698;2022-09-13T00:58:48;1.97;;;1.50;;
14209;SDS011;7188;56.070;12.698;2022-09-13T01:01:17;2.73;;;1.10;;
14209;SDS011;7188;56.070;12.698;2022-09-13T01:03:47;3.53;;;1.70;;
14209;SDS011;7188;56.070;12.698;2022-09-13T01:06:17;2.27;;;1.10;;
14209;SDS011;7188;56.070;12.698;2022-09-13T01:08:47;1.30;;;1.10;;
14209;SDS011;7188;56.070;12.698;2022-09-13T01:11:23;4.37;;;1.50;;
14209;SDS011;7188;56.070;12.698;2022-09-13T01:14:14;2.67;;;1.37;;
14209;SDS011;7188;56.070;12.698;2022-09-13T01:16:42;2.47;;;1.43;;
14209;SDS011;7188;56.070;12.698;2022-09-13T01:19:08;3.60;;;1.17;;
14209;SDS011;7188;56.070;12.698;2022-09-13T01:27:30;6.67;;;2.43;;
14209;SDS011;7188;56.070;12.698;2022-09-13T01:30:37;5.97;;;2.07;;
14209;SDS011;7188;56.070;12.698;2022-09-13T01:38:39;6.00;;;2.23;;
14209;SDS011;7188;56.070;12.698;2022-09-13T01:46:38;8.03;;;3.00;;
14209;SDS011;7188;56.070;12.698;2022-09-13T01:49:16;8.50;;;3.20;;
14209;SDS011;7188;56.070;12.698;2022-09-13T01:52:04;4.20;;;3.10;;
14209;SDS011;7188;56.070;12.698;2022-09-13T01:54:56;5.30;;;2.90;;
14209;SDS011;7188;56.070;12.698;2022-09-13T01:57:38;11.77;;;3.53;;
14209;SDS011;7188;56.070;12.698;2022-09-13T02:00:12;7.33;;;3.70;;
14209;SDS011;7188;56.070;12.698;2022-09-13T02:08:06;13.87;;;5.07;;
14209;SDS011;7188;56.070;12.698;2022-09-13T02:10:46;7.90;;;3.63;;
14209;SDS011;7188;56.070;12.698;2022-09-13T02:13:25;10.10;;;4.27;;
14209;SDS011;7188;56.070;12.698;2022-09-13T02:15:56;9.73;;;4.53;;
14209;SDS011;7188;56.070;12.698;2022-09-13T02:18:31;9.10;;;4.27;;
14209;SDS011;7188;56.070;12.698;2022-09-13T02:21:03;11.43;;;4.20;;
14209;SDS011;7188;56.070;12.698;2022-09-13T02:23:53;7.43;;;4.30;;
14209;SDS011;7188;56.070;12.698;2022-09-13T02:26:25;3.80;;;3.30;;
14209;SDS011;7188;56.070;12.698;2022-09-13T02:28:53;11.37;;;4.00;;
14209;SDS011;7188;56.070;12.698;2022-09-13T02:31:27;4.83;;;3.90;;
14209;SDS011;7188;56.070;12.698;2022-09-13T02:34:05;4.47;;;4.07;;
14209;SDS011;7188;56.070;12.698;2022-09-13T02:36:37;4.90;;;3.93;;
14209;SDS011;7188;56.070;12.698;2022-09-13T02:39:10;4.87;;;3.87;;
14209;SDS011;7188;56.070;12.698;2022-09-13T02:41:40;4.87;;;4.20;;
14209;SDS011;7188;56.070;12.698;2022-09-13T02:47:14;5.83;;;3.83;;
14209;SDS011;7188;56.070;12.698;2022-09-13T02:52:50;5.43;;;4.90;;
14209;SDS011;7188;56.070;12.698;2022-09-13T02:55:40;6.07;;;4.97;;
14209;SDS011;7188;56.070;12.698;2022-09-13T02:58:31;9.50;;;5.70;;
14209;SDS011;7188;56.070;12.698;2022-09-13T03:01:11;7.53;;;5.13;;
14209;SDS011;7188;56.070;12.698;2022-09-13T03:03:36;7.50;;;5.57;;
14209;SDS011;7188;56.070;12.698;2022-09-13T03:06:02;8.13;;;5.90;;
14209;SDS011;7188;56.070;12.698;2022-09-13T03:08:28;10.77;;;6.03;;
14209;SDS011;7188;56.070;12.698;2022-09-13T03:37:34;9.47;;;6.57;;
14209;SDS011;7188;56.070;12.698;2022-09-13T03:40:21;6.93;;;6.17;;
14209;SDS011;7188;56.070;12.698;2022-09-13T03:45:55;6.90;;;5.77;;
14209;SDS011;7188;56.070;12.698;2022-09-13T03:48:23;6.07;;;5.53;;
14209;SDS011;7188;56.070;12.698;2022-09-13T03:50:51;9.67;;;6.40;;
14209;SDS011;7188;56.070;12.698;2022-09-13T03:53:22;8.93;;;5.97;;
14209;SDS011;7188;56.070;12.698;2022-09-13T03:55:49;7.03;;;6.33;;
14209;SDS011;7188;56.070;12.698;2022-09-13T03:58:17;6.90;;;6.17;;
14209;SDS011;7188;56.070;12.698;2022-09-13T04:00:43;8.60;;;6.43;;
14209;SDS011;7188;56.070;12.698;2022-09-13T04:03:10;6.63;;;6.03;;
14209;SDS011;7188;56.070;12.698;2022-09-13T04:05:36;6.53;;;5.83;;
14209;SDS011;7188;56.070;12.698;2022-09-13T04:08:03;7.57;;;6.87;;
14209;SDS011;7188;56.070;12.698;2022-09-13T04:10:30;8.30;;;7.50;;
14209;SDS011;7188;56.070;12.698;2022-09-13T04:12:56;8.50;;;7.70;;
14209;SDS011;7188;56.070;12.698;2022-09-13T04:15:23;9.30;;;8.00;;
14209;SDS011;7188;56.070;12.698;2022-09-13T04:17:49;8.93;;;7.57;;
14209;SDS011;7188;56.070;12.698;2022-09-13T04:20:15;9.90;;;7.67;;
14209;SDS011;7188;56.070;12.698;2022-09-13T04:22:40;8.23;;;7.53;;
14209;SDS011;7188;56.070;12.698;2022-09-13T04:25:06;14.53;;;7.83;;
14209;SDS011;7188;56.070;12.698;2022-09-13T04:27:32;12.07;;;9.07;;
14209;SDS011;7188;56.070;12.698;2022-09-13T04:30:00;10.00;;;8.30;;
14209;SDS011;7188;56.070;12.698;2022-09-13T04:32:26;9.27;;;7.97;;
14209;SDS011;7188;56.070;12.698;2022-09-13T04:34:55;8.97;;;8.17;;
14209;SDS011;7188;56.070;12.698;2022-09-13T04:37:21;10.27;;;8.60;;
14209;SDS011;7188;56.070;12.698;2022-09-13T04:39:47;8.27;;;7.53;;
14209;SDS011;7188;56.070;12.698;2022-09-13T04:42:25;9.13;;;8.30;;
14209;SDS011;7188;56.070;12.698;2022-09-13T04:44:50;7.37;;;6.77;;
14209;SDS011;7188;56.070;12.698;2022-09-13T04:47:16;8.53;;;7.17;;
14209;SDS011;7188;56.070;12.698;2022-09-13T04:49:42;8.37;;;7.57;;
14209;SDS011;7188;56.070;12.698;2022-09-13T04:52:08;8.00;;;7.30;;
14209;SDS011;7188;56.070;12.698;2022-09-13T04:54:33;8.53;;;7.57;;
14209;SDS011;7188;56.070;12.698;2022-09-13T04:56:59;8.20;;;7.10;;
14209;SDS011;7188;56.070;12.698;2022-09-13T04:59:24;8.27;;;7.50;;
14209;SDS011;7188;56.070;12.698;2022-09-13T05:01:50;7.33;;;6.63;;
14209;SDS011;7188;56.070;12.698;2022-09-13T05:04:16;8.20;;;7.40;;
14209;SDS011;7188;56.070;12.698;2022-09-13T05:06:41;8.87;;;7.97;;
14209;SDS011;7188;56.070;12.698;2022-09-13T05:09:09;8.63;;;7.90;;
14209;SDS011;7188;56.070;12.698;2022-09-13T05:11:37;8.23;;;7.47;;
14209;SDS011;7188;56.070;12.698;2022-09-13T05:14:03;9.17;;;8.27;;
14209;SDS011;7188;56.070;12.698;2022-09-13T05:16:30;9.20;;;8.40;;
14209;SDS011;7188;56.070;12.698;2022-09-13T05:18:57;10.10;;;9.20;;
14209;SDS011;7188;56.070;12.698;2022-09-13T05:21:22;10.13;;;9.10;;
14209;SDS011;7188;56.070;12.698;2022-09-13T05:23:49;10.87;;;9.87;;
14209;SDS011;7188;56.070;12.698;2022-09-13T05:26:18;10.90;;;10.00;;
14209;SDS011;7188;56.070;12.698;2022-09-13T05:28:45;11.67;;;10.37;;
14209;SDS011;7188;56.070;12.698;2022-09-13T05:33:42;12.40;;;11.27;;
14209;SDS011;7188;56.070;12.698;2022-09-13T05:36:08;13.67;;;10.43;;
14209;SDS011;7188;56.070;12.698;2022-09-13T05:38:34;15.77;;;12.00;;
14209;SDS011;7188;56.070;12.698;2022-09-13T05:41:05;13.63;;;11.67;;
14209;SDS011;7188;56.070;12.698;2022-09-13T05:43:33;15.97;;;13.10;;
14209;SDS011;7188;56.070;12.698;2022-09-13T05:46:10;12.57;;;11.13;;
14209;SDS011;7188;56.070;12.698;2022-09-13T05:48:37;13.20;;;11.70;;
14209;SDS011;7188;56.070;12.698;2022-09-13T05:51:14;15.90;;;12.17;;
14209;SDS011;7188;56.070;12.698;2022-09-13T05:53:50;12.77;;;11.47;;
14209;SDS011;7188;56.070;12.698;2022-09-13T05:56:22;16.73;;;12.63;;
14209;SDS011;7188;56.070;12.698;2022-09-13T05:58:50;14.37;;;11.97;;
14209;SDS011;7188;56.070;12.698;2022-09-13T06:01:17;14.37;;;11.97;;
14209;SDS011;7188;56.070;12.698;2022-09-13T06:03:47;14.90;;;11.67;;
14209;SDS011;7188;56.070;12.698;2022-09-13T06:06:14;14.80;;;11.93;;
14209;SDS011;7188;56.070;12.698;2022-09-13T06:08:40;14.77;;;12.03;;
14209;SDS011;7188;56.070;12.698;2022-09-13T06:11:07;13.43;;;11.20;;
14209;SDS011;7188;56.070;12.698;2022-09-13T06:13:35;14.10;;;11.77;;
14209;SDS011;7188;56.070;12.698;2022-09-13T06:16:02;11.40;;;10.20;;
14209;SDS011;7188;56.070;12.698;2022-09-13T06:18:29;12.80;;;9.70;;
14209;SDS011;7188;56.070;12.698;2022-09-13T06:20:58;11.90;;;9.53;;
14209;SDS011;7188;56.070;12.698;2022-09-13T06:23:26;12.63;;;10.03;;
14209;SDS011;7188;56.070;12.698;2022-09-13T06:26:02;13.80;;;8.80;;
14209;SDS011;7188;56.070;12.698;2022-09-13T06:28:28;8.77;;;7.40;;
14209;SDS011;7188;56.070;12.698;2022-09-13T06:31:01;7.23;;;6.03;;
14209;SDS011;7188;56.070;12.698;2022-09-13T06:33:28;5.40;;;4.50;;
14209;SDS011;7188;56.070;12.698;2022-09-13T06:35:54;4.27;;;3.20;;
14209;SDS011;7188;56.070;12.698;2022-09-13T06:38:23;5.80;;;2.90;;
14209;SDS011;7188;56.070;12.698;2022-09-13T06:40:57;5.23;;;2.70;;
14209;SDS011;7188;56.070;12.698;2022-09-13T06:43:33;5.23;;;2.60;;
14209;SDS011;7188;56.070;12.698;2022-09-13T06:46:00;3.67;;;2.17;;
14209;SDS011;7188;56.070;12.698;2022-09-13T06:48:30;3.80;;;2.00;;
14209;SDS011;7188;56.070;12.698;2022-09-13T06:50:59;5.53;;;2.13;;
14209;SDS011;7188;56.070;12.698;2022-09-13T06:53:25;6.17;;;1.50;;
14209;SDS011;7188;56.070;12.698;2022-09-13T06:56:27;3.67;;;1.50;;
14209;SDS011;7188;56.070;12.698;2022-09-13T06:59:00;4.70;;;1.23;;
14209;SDS011;7188;56.070;12.698;2022-09-13T07:01:29;2.83;;;1.27;;
14209;SDS011;7188;56.070;12.698;2022-09-13T07:04:03;2.17;;;0.87;;
14209;SDS011;7188;56.070;12.698;2022-09-13T07:06:32;1.40;;;0.80;;
14209;SDS011;7188;56.070;12.698;2022-09-13T07:09:00;3.57;;;1.00;;
14209;SDS011;7188;56.070;12.698;2022-09-13T07:11:29;4.13;;;1.03;;
14209;SDS011;7188;56.070;12.698;2022-09-13T07:13:57;2.67;;;1.10;;
14209;SDS011;7188;56.070;12.698;2022-09-13T07:16:24;3.53;;;0.90;;
14209;SDS011;7188;56.070;12.698;2022-09-13T07:18:55;4.53;;;0.70;;
14209;SDS011;7188;56.070;12.698;2022-09-13T07:21:21;2.67;;;0.70;;
14209;SDS011;7188;56.070;12.698;2022-09-13T07:23:48;7.43;;;1.07;;
14209;SDS011;7188;56.070;12.698;2022-09-13T07:26:15;5.47;;;0.83;;
14209;SDS011;7188;56.070;12.698;2022-09-13T07:28:41;8.53;;;0.70;;
14209;SDS011;7188;56.070;12.698;2022-09-13T07:31:12;4.53;;;0.60;;
14209;SDS011;7188;56.070;12.698;2022-09-13T07:33:40;5.43;;;0.90;;
14209;SDS011;7188;56.070;12.698;2022-09-13T07:36:07;4.63;;;1.00;;
14209;SDS011;7188;56.070;12.698;2022-09-13T07:38:34;7.10;;;1.10;;
14209;SDS011;7188;56.070;12.698;2022-09-13T07:41:00;7.43;;;1.10;;
14209;SDS011;7188;56.070;12.698;2022-09-13T07:43:26;4.20;;;0.87;;
14209;SDS011;7188;56.070;12.698;2022-09-13T07:46:00;3.97;;;0.90;;
14209;SDS011;7188;56.070;12.698;2022-09-13T07:48:31;5.90;;;0.90;;
14209;SDS011;7188;56.070;12.698;2022-09-13T07:50:59;7.60;;;1.13;;
14209;SDS011;7188;56.070;12.698;2022-09-13T07:53:29;6.00;;;0.60;;
14209;SDS011;7188;56.070;12.698;2022-09-13T07:56:03;3.87;;;0.67;;
14209;SDS011;7188;56.070;12.698;2022-09-13T07:58:34;4.83;;;0.60;;
14209;SDS011;7188;56.070;12.698;2022-09-13T08:01:03;4.67;;;0.90;;
14209;SDS011;7188;56.070;12.698;2022-09-13T08:03:29;5.10;;;0.70;;
14209;SDS011;7188;56.070;12.698;2022-09-13T08:05:55;3.07;;;0.90;;
14209;SDS011;7188;56.070;12.698;2022-09-13T08:08:21;4.80;;;0.50;;
14209;SDS011;7188;56.070;12.698;2022-09-13T08:10:46;4.97;;;0.70;;
14209;SDS011;7188;56.070;12.698;2022-09-13T08:13:14;5.03;;;0.87;;
14209;SDS011;7188;56.070;12.698;2022-09-13T08:15:40;5.47;;;0.90;;
14209;SDS011;7188;56.070;12.698;2022-09-13T08:18:06;4.70;;;0.70;;
14209;SDS011;7188;56.070;12.698;2022-09-13T08:20:34;1.80;;;0.50;;
14209;SDS011;7188;56.070;12.698;2022-09-13T08:23:01;4.17;;;0.97;;
14209;SDS011;7188;56.070;12.698;2022-09-13T08:25:27;4.33;;;0.43;;
14209;SDS011;7188;56.070;12.698;2022-09-13T08:27:53;4.47;;;0.50;;
14209;SDS011;7188;56.070;12.698;2022-09-13T08:30:18;2.87;;;0.57;;
14209;SDS011;7188;56.070;12.698;2022-09-13T08:32:44;8.67;;;1.10;;
14209;SDS011;7188;56.070;12.698;2022-09-13T08:35:09;3.80;;;0.40;;
14209;SDS011;7188;56.070;12.698;2022-09-13T08:37:35;4.63;;;0.60;;
14209;SDS011;7188;56.070;12.698;2022-09-13T08:40:01;7.23;;;0.67;;
14209;SDS011;7188;56.070;12.698;2022-09-13T08:42:35;4.07;;;0.63;;
14209;SDS011;7188;56.070;12.698;2022-09-13T08:45:15;2.07;;;0.43;;
14209;SDS011;7188;56.070;12.698;2022-09-13T08:48:03;4.90;;;0.73;;
14209;SDS011;7188;56.070;12.698;2022-09-13T08:50:32;5.23;;;0.97;;
14209;SDS011;7188;56.070;12.698;2022-09-13T08:53:34;3.23;;;0.40;;
14209;SDS011;7188;56.070;12.698;2022-09-13T09:03:48;7.00;;;0.60;;
14209;SDS011;7188;56.070;12.698;2022-09-13T09:06:24;3.40;;;0.50;;
14209;SDS011;7188;56.070;12.698;2022-09-13T09:09:03;2.73;;;0.70;;
14209;SDS011;7188;56.070;12.698;2022-09-13T09:16:45;2.00;;;0.50;;
14209;SDS011;7188;56.070;12.698;2022-09-13T09:21:48;5.17;;;0.83;;
14209;SDS011;7188;56.070;12.698;2022-09-13T09:24:20;2.50;;;0.80;;
14209;SDS011;7188;56.070;12.698;2022-09-13T09:26:47;3.23;;;0.73;;
14209;SDS011;7188;56.070;12.698;2022-09-13T09:29:20;8.70;;;1.27;;
14209;SDS011;7188;56.070;12.698;2022-09-13T09:32:15;3.40;;;0.50;;
14209;SDS011;7188;56.070;12.698;2022-09-13T09:38:00;3.13;;;0.73;;
14209;SDS011;7188;56.070;12.698;2022-09-13T09:40:49;7.60;;;0.98;;
14209;SDS011;7188;56.070;12.698;2022-09-13T09:43:20;2.80;;;0.50;;
14209;SDS011;7188;56.070;12.698;2022-09-13T09:45:51;3.53;;;0.67;;
14209;SDS011;7188;56.070;12.698;2022-09-13T09:48:21;2.93;;;0.60;;
14209;SDS011;7188;56.070;12.698;2022-09-13T09:50:51;4.57;;;1.07;;
14209;SDS011;7188;56.070;12.698;2022-09-13T09:53:24;6.27;;;0.77;;
14209;SDS011;7188;56.070;12.698;2022-09-13T09:58:35;3.33;;;0.70;;
14209;SDS011;7188;56.070;12.698;2022-09-13T10:01:05;3.80;;;0.67;;
14209;SDS011;7188;56.070;12.698;2022-09-13T10:04:34;4.17;;;0.80;;
14209;SDS011;7188;56.070;12.698;2022-09-13T10:06:36;5.10;;;0.70;;
14209;SDS011;7188;56.070;12.698;2022-09-13T10:09:14;4.67;;;0.53;;
14209;SDS011;7188;56.070;12.698;2022-09-13T10:14:25;4.83;;;0.63;;
14209;SDS011;7188;56.070;12.698;2022-09-13T10:22:25;5.53;;;0.60;;
14209;SDS011;7188;56.070;12.698;2022-09-13T10:24:52;4.53;;;0.50;;
14209;SDS011;7188;56.070;12.698;2022-09-13T10:27:31;5.03;;;0.60;;
14209;SDS011;7188;56.070;12.698;2022-09-13T10:30:01;3.97;;;0.63;;
14209;SDS011;7188;56.070;12.698;2022-09-13T10:32:28;3.40;;;0.73;;
14209;SDS011;7188;56.070;12.698;2022-09-13T10:34:55;4.43;;;0.40;;
14209;SDS011;7188;56.070;12.698;2022-09-13T10:37:31;3.70;;;0.40;;
14209;SDS011;7188;56.070;12.698;2022-09-13T10:42:32;4.43;;;0.60;;
14209;SDS011;7188;56.070;12.698;2022-09-13T10:52:51;5.93;;;0.80;;
14209;SDS011;7188;56.070;12.698;2022-09-13T10:58:26;1.93;;;0.57;;
14209;SDS011;7188;56.070;12.698;2022-09-13T11:33:45;4.13;;;0.70;;
14209;SDS011;7188;56.070;12.698;2022-09-13T11:54:27;4.43;;;0.90;;
14209;SDS011;7188;56.070;12.698;2022-09-13T11:56:48;4.47;;;0.60;;
14209;SDS011;7188;56.070;12.698;2022-09-13T11:59:24;6.23;;;0.70;;
14209;SDS011;7188;56.070;12.698;2022-09-13T12:04:58;8.00;;;0.70;;
14209;SDS011;7188;56.070;12.698;2022-09-13T12:07:39;7.70;;;0.63;;
14209;SDS011;7188;56.070;12.698;2022-09-13T12:10:28;5.80;;;0.63;;
14209;SDS011;7188;56.070;12.698;2022-09-13T12:12:59;7.60;;;0.70;;
14209;SDS011;7188;56.070;12.698;2022-09-13T12:15:37;3.33;;;0.60;;
14209;SDS011;7188;56.070;12.698;2022-09-13T12:21:08;2.45;;;0.60;;
14209;SDS011;7188;56.070;12.698;2022-09-13T12:23:46;4.53;;;0.50;;
14209;SDS011;7188;56.070;12.698;2022-09-13T12:26:38;2.33;;;0.43;;
14209;SDS011;7188;56.070;12.698;2022-09-13T12:29:42;4.10;;;0.53;;
14209;SDS011;7188;56.070;12.698;2022-09-13T12:32:13;4.77;;;0.93;;
14209;SDS011;7188;56.070;12.698;2022-09-13T12:34:50;6.38;;;0.70;;
14209;SDS011;7188;56.070;12.698;2022-09-13T12:43:50;2.43;;;0.73;;
14209;SDS011;7188;56.070;12.698;2022-09-13T12:54:33;3.70;;;0.67;;
14209;SDS011;7188;56.070;12.698;2022-09-13T13:02:49;8.43;;;0.87;;
14209;SDS011;7188;56.070;12.698;2022-09-13T13:05:26;3.37;;;0.50;;
14209;SDS011;7188;56.070;12.698;2022-09-13T13:07:57;3.23;;;0.60;;
14209;SDS011;7188;56.070;12.698;2022-09-13T13:10:27;3.50;;;0.40;;
14209;SDS011;7188;56.070;12.698;2022-09-13T13:15:56;2.63;;;0.40;;
14209;SDS011;7188;56.070;12.698;2022-09-13T13:18:26;1.37;;;0.40;;
14209;SDS011;7188;56.070;12.698;2022-09-13T13:21:21;2.90;;;0.82;;
14209;SDS011;7188;56.070;12.698;2022-09-13T13:29:11;3.90;;;0.43;;
14209;SDS011;7188;56.070;12.698;2022-09-13T13:36:47;5.93;;;0.50;;
14209;SDS011;7188;56.070;12.698;2022-09-13T13:41:54;2.88;;;0.70;;
14209;SDS011;7188;56.070;12.698;2022-09-13T13:46:54;5.18;;;0.98;;
14209;SDS011;7188;56.070;12.698;2022-09-13T13:49:41;4.43;;;0.70;;
14209;SDS011;7188;56.070;12.698;2022-09-13T14:00:18;4.50;;;0.73;;
14209;SDS011;7188;56.070;12.698;2022-09-13T14:05:34;4.47;;;0.63;;
14209;SDS011;7188;56.070;12.698;2022-09-13T14:19:24;3.47;;;0.50;;
14209;SDS011;7188;56.070;12.698;2022-09-13T14:24:43;4.10;;;0.73;;
14209;SDS011;7188;56.070;12.698;2022-09-13T14:27:14;2.73;;;0.70;;
14209;SDS011;7188;56.070;12.698;2022-09-13T14:29:43;3.83;;;0.60;;
14209;SDS011;7188;56.070;12.698;2022-09-13T14:32:10;4.97;;;0.70;;
14209;SDS011;7188;56.070;12.698;2022-09-13T14:34:49;4.10;;;0.60;;
14209;SDS011;7188;56.070;12.698;2022-09-13T14:37:30;3.87;;;0.50;;
14209;SDS011;7188;56.070;12.698;2022-09-13T14:42:39;4.07;;;0.90;;
14209;SDS011;7188;56.070;12.698;2022-09-13T14:45:11;4.37;;;0.60;;
14209;SDS011;7188;56.070;12.698;2022-09-13T14:48:16;2.53;;;0.40;;
14209;SDS011;7188;56.070;12.698;2022-09-13T14:50:50;3.67;;;0.57;;
14209;SDS011;7188;56.070;12.698;2022-09-13T14:53:23;7.83;;;0.77;;
14209;SDS011;7188;56.070;12.698;2022-09-13T15:01:18;4.10;;;0.40;;
14209;SDS011;7188;56.070;12.698;2022-09-13T15:03:50;3.90;;;0.90;;
14209;SDS011;7188;56.070;12.698;2022-09-13T15:06:27;3.00;;;1.13;;
14209;SDS011;7188;56.070;12.698;2022-09-13T15:08:57;2.50;;;0.60;;
14209;SDS011;7188;56.070;12.698;2022-09-13T15:11:57;3.30;;;0.80;;
14209;SDS011;7188;56.070;12.698;2022-09-13T15:24:52;1.70;;;0.40;;
14209;SDS011;7188;56.070;12.698;2022-09-13T15:27:30;4.60;;;0.70;;
14209;SDS011;7188;56.070;12.698;2022-09-13T15:33:13;1.53;;;0.40;;
14209;SDS011;7188;56.070;12.698;2022-09-13T15:35:47;1.47;;;0.53;;
14209;SDS011;7188;56.070;12.698;2022-09-13T15:41:09;4.13;;;0.50;;
14209;SDS011;7188;56.070;12.698;2022-09-13T15:43:57;1.67;;;0.60;;
14209;SDS011;7188;56.070;12.698;2022-09-13T15:46:23;2.10;;;0.60;;
14209;SDS011;7188;56.070;12.698;2022-09-13T15:48:53;5.17;;;0.50;;
14209;SDS011;7188;56.070;12.698;2022-09-13T15:51:21;2.37;;;0.50;;
14209;SDS011;7188;56.070;12.698;2022-09-13T15:53:47;3.37;;;0.40;;
14209;SDS011;7188;56.070;12.698;2022-09-13T15:56:14;3.00;;;0.87;;
14209;SDS011;7188;56.070;12.698;2022-09-13T15:58:55;2.20;;;0.70;;
14209;SDS011;7188;56.070;12.698;2022-09-13T16:01:20;3.20;;;0.43;;
14209;SDS011;7188;56.070;12.698;2022-09-13T16:03:46;2.23;;;0.40;;
14209;SDS011;7188;56.070;12.698;2022-09-13T16:06:11;6.40;;;0.90;;
14209;SDS011;7188;56.070;12.698;2022-09-13T16:08:37;2.23;;;0.80;;
14209;SDS011;7188;56.070;12.698;2022-09-13T16:11:03;4.87;;;0.70;;
14209;SDS011;7188;56.070;12.698;2022-09-13T16:13:30;9.70;;;1.10;;
14209;SDS011;7188;56.070;12.698;2022-09-13T16:15:56;4.67;;;0.60;;
14209;SDS011;7188;56.070;12.698;2022-09-13T16:18:22;5.80;;;0.77;;
14209;SDS011;7188;56.070;12.698;2022-09-13T16:20:48;4.30;;;0.77;;
14209;SDS011;7188;56.070;12.698;2022-09-13T16:23:14;4.07;;;0.90;;
14209;SDS011;7188;56.070;12.698;2022-09-13T16:25:40;4.10;;;0.80;;
14209;SDS011;7188;56.070;12.698;2022-09-13T16:28:07;5.43;;;0.80;;
14209;SDS011;7188;56.070;12.698;2022-09-13T16:30:36;3.90;;;0.77;;
14209;SDS011;7188;56.070;12.698;2022-09-13T16:33:02;5.50;;;0.80;;
14209;SDS011;7188;56.070;12.698;2022-09-13T16:35:28;6.93;;;0.73;;
14209;SDS011;7188;56.070;12.698;2022-09-13T16:37:55;7.67;;;1.03;;
14209;SDS011;7188;56.070;12.698;2022-09-13T16:40:21;5.10;;;0.60;;
14209;SDS011;7188;56.070;12.698;2022-09-13T16:42:47;6.33;;;1.37;;
14209;SDS011;7188;56.070;12.698;2022-09-13T16:45:13;6.43;;;1.10;;
14209;SDS011;7188;56.070;12.698;2022-09-13T16:47:39;8.93;;;1.20;;
14209;SDS011;7188;56.070;12.698;2022-09-13T16:50:05;7.13;;;0.83;;
14209;SDS011;7188;56.070;12.698;2022-09-13T16:52:32;5.90;;;1.10;;
14209;SDS011;7188;56.070;12.698;2022-09-13T16:54:58;7.60;;;0.97;;
14209;SDS011;7188;56.070;12.698;2022-09-13T16:57:24;6.73;;;1.00;;
14209;SDS011;7188;56.070;12.698;2022-09-13T16:59:51;5.60;;;1.37;;
14209;SDS011;7188;56.070;12.698;2022-09-13T17:02:18;4.23;;;0.90;;
14209;SDS011;7188;56.070;12.698;2022-09-13T17:04:45;5.97;;;1.10;;
14209;SDS011;7188;56.070;12.698;2022-09-13T17:07:11;7.67;;;0.90;;
14209;SDS011;7188;56.070;12.698;2022-09-13T17:09:38;6.83;;;1.20;;
14209;SDS011;7188;56.070;12.698;2022-09-13T17:12:05;7.13;;;0.80;;
14209;SDS011;7188;56.070;12.698;2022-09-13T17:14:31;4.33;;;1.07;;
14209;SDS011;7188;56.070;12.698;2022-09-13T17:16:58;6.53;;;1.30;;
14209;SDS011;7188;56.070;12.698;2022-09-13T17:19:26;6.70;;;0.80;;
14209;SDS011;7188;56.070;12.698;2022-09-13T17:21:57;3.23;;;0.70;;
14209;SDS011;7188;56.070;12.698;2022-09-13T17:24:24;4.10;;;0.80;;
14209;SDS011;7188;56.070;12.698;2022-09-13T17:26:51;9.37;;;1.10;;
14209;SDS011;7188;56.070;12.698;2022-09-13T17:29:16;7.63;;;1.57;;
14209;SDS011;7188;56.070;12.698;2022-09-13T17:31:43;4.87;;;1.00;;
14209;SDS011;7188;56.070;12.698;2022-09-13T17:34:09;4.77;;;1.03;;
14209;SDS011;7188;56.070;12.698;2022-09-13T17:36:35;7.77;;;0.90;;
14209;SDS011;7188;56.070;12.698;2022-09-13T17:39:02;8.37;;;1.00;;
14209;SDS011;7188;56.070;12.698;2022-09-13T17:41:28;8.93;;;1.20;;
14209;SDS011;7188;56.070;12.698;2022-09-13T17:43:54;6.13;;;1.23;;
14209;SDS011;7188;56.070;12.698;2022-09-13T17:46:20;8.07;;;0.90;;
14209;SDS011;7188;56.070;12.698;2022-09-13T17:48:49;9.13;;;1.50;;
14209;SDS011;7188;56.070;12.698;2022-09-13T17:51:18;5.43;;;0.93;;
14209;SDS011;7188;56.070;12.698;2022-09-13T17:53:55;12.20;;;1.50;;
14209;SDS011;7188;56.070;12.698;2022-09-13T17:58:56;5.57;;;1.70;;
14209;SDS011;7188;56.070;12.698;2022-09-13T18:01:27;4.37;;;0.90;;
14209;SDS011;7188;56.070;12.698;2022-09-13T18:03:53;7.70;;;1.30;;
14209;SDS011;7188;56.070;12.698;2022-09-13T18:06:19;8.73;;;1.33;;
14209;SDS011;7188;56.070;12.698;2022-09-13T18:08:45;8.17;;;1.50;;
14209;SDS011;7188;56.070;12.698;2022-09-13T18:11:12;7.07;;;1.37;;
14209;SDS011;7188;56.070;12.698;2022-09-13T18:13:40;8.17;;;1.20;;
14209;SDS011;7188;56.070;12.698;2022-09-13T18:16:08;4.27;;;0.90;;
14209;SDS011;7188;56.070;12.698;2022-09-13T18:18:38;6.67;;;1.20;;
14209;SDS011;7188;56.070;12.698;2022-09-13T18:21:05;7.03;;;1.20;;
14209;SDS011;7188;56.070;12.698;2022-09-13T18:23:31;6.77;;;0.90;;
14209;SDS011;7188;56.070;12.698;2022-09-13T18:25:58;5.53;;;1.03;;
14209;SDS011;7188;56.070;12.698;2022-09-13T18:28:32;7.77;;;1.10;;
14209;SDS011;7188;56.070;12.698;2022-09-13T18:30:58;4.23;;;1.07;;
14209;SDS011;7188;56.070;12.698;2022-09-13T18:33:25;8.33;;;1.20;;
14209;SDS011;7188;56.070;12.698;2022-09-13T18:36:05;6.33;;;1.57;;
14209;SDS011;7188;56.070;12.698;2022-09-13T18:38:33;4.30;;;1.03;;
14209;SDS011;7188;56.070;12.698;2022-09-13T18:41:04;4.50;;;0.80;;
14209;SDS011;7188;56.070;12.698;2022-09-13T18:43:34;3.00;;;0.80;;
14209;SDS011;7188;56.070;12.698;2022-09-13T18:46:02;4.57;;;1.10;;
14209;SDS011;7188;56.070;12.698;2022-09-13T18:48:30;8.23;;;1.03;;
14209;SDS011;7188;56.070;12.698;2022-09-13T18:50:57;2.30;;;0.60;;
14209;SDS011;7188;56.070;12.698;2022-09-13T18:53:23;7.10;;;0.70;;
14209;SDS011;7188;56.070;12.698;2022-09-13T18:55:49;4.37;;;0.97;;
14209;SDS011;7188;56.070;12.698;2022-09-13T18:58:15;9.60;;;0.97;;
14209;SDS011;7188;56.070;12.698;2022-09-13T19:00:40;6.83;;;1.07;;
14209;SDS011;7188;56.070;12.698;2022-09-13T19:03:07;3.70;;;0.50;;
14209;SDS011;7188;56.070;12.698;2022-09-13T19:05:34;5.40;;;0.70;;
14209;SDS011;7188;56.070;12.698;2022-09-13T19:08:05;5.87;;;0.80;;
14209;SDS011;7188;56.070;12.698;2022-09-13T19:10:32;2.67;;;0.47;;
14209;SDS011;7188;56.070;12.698;2022-09-13T19:12:57;5.40;;;0.60;;
14209;SDS011;7188;56.070;12.698;2022-09-13T19:15:23;6.67;;;0.60;;
14209;SDS011;7188;56.070;12.698;2022-09-13T19:17:48;5.20;;;0.60;;